Susanne.pairtrawler — DETY — position and weather

sailwx.info

Track history (hours):
 
Tides and Currents Weather Stations Pressure Air Temp Water Temp Dewpoint Dewpoint Depression Visibility Wind Speed Wind Dir Waves Ship Positions

Susanne.pairtrawler

Last reported at 2018-Jan-10 15:24 UTC. Time now 2018-Jan-22 08:30 UTC.
Position N 57°07' E 008°36'.
Warning: this ship's position is 11 days out of date.

Length 40 m; draft 5 m.

Type: Fishing. MMSI: 211227510.

Date/timePositionNaut miles runAvg speedWind from/ knotsBaromVisibWave heightAir tempDewpointWater temp
2018-Jan-10 15:24N 57°07' E 008°36'0 0.0
2018-Jan-10 15:01N 57°07' E 008°36'0 0.0
2018-Jan-10 14:30N 57°07' E 008°36'0 0.0
2018-Jan-10 14:00N 57°07' E 008°36'0 0.0
2018-Jan-10 13:30N 57°07' E 008°36'0 0.0
2018-Jan-10 13:00N 57°07' E 008°36'0 0.0
2018-Jan-10 12:28N 57°07' E 008°36'79 6.6
2018-Jan-10 00:34N 55°52' E 007°52'111.5
2018-Jan-10 00:29N 55°51' E 007°51'511.4
2018-Jan-10 00:00N 55°46' E 007°51'611.5
2018-Jan-09 23:30N 55°40' E 007°50'611.6
2018-Jan-09 23:00N 55°34' E 007°49'612.7
2018-Jan-09 22:31N 55°31' E 007°58'510.4
2018-Jan-09 22:01N 55°26' E 008°04'611.7
2018-Jan-09 21:30N 55°21' E 008°05'7912.0
2018-Jan-09 14:55N 54°02' E 008°16'4 9.6
2018-Jan-09 14:29N 53°60' E 008°22'5 9.7
2018-Jan-09 14:00N 53°59' E 008°30'5 9.9
2018-Jan-09 13:30N 53°57' E 008°38'611.6
2018-Jan-09 13:00N 53°52' E 008°43'0 0.8
2018-Jan-09 12:30N 53°52' E 008°43'0 0.4
2018-Jan-09 12:00N 53°52' E 008°43'0 0.0
2018-Jan-09 11:26N 53°52' E 008°43'0 0.0
2018-Jan-09 11:00N 53°52' E 008°43'0 0.0
2018-Jan-09 10:26N 53°52' E 008°43'0 0.0
2018-Jan-09 09:58N 53°52' E 008°43'0 0.0
2018-Jan-09 09:27N 53°52' E 008°43'0 0.0
2018-Jan-09 09:00N 53°52' E 008°43'0 0.0
2018-Jan-09 08:28N 53°52' E 008°43'0 0.0
2018-Jan-09 07:53N 53°52' E 008°43'0 0.0
2018-Jan-09 07:28N 53°52' E 008°43'0 0.0
2018-Jan-09 06:53N 53°52' E 008°43'0 0.0
2018-Jan-09 06:29N 53°52' E 008°43'0 0.1
2018-Jan-09 06:00N 53°52' E 008°43'0 0.0
2018-Jan-09 05:30N 53°52' E 008°43'0 0.0
2018-Jan-09 04:59N 53°52' E 008°43'0 0.0
2018-Jan-09 04:30N 53°52' E 008°43'0 0.0
2018-Jan-09 03:58N 53°52' E 008°43'0 0.0
2018-Jan-09 03:30N 53°52' E 008°43'0 0.0
2018-Jan-09 03:00N 53°52' E 008°43'0 0.0
2018-Jan-09 02:31N 53°52' E 008°43'0 0.0
2018-Jan-09 02:00N 53°52' E 008°43'0 0.0
2018-Jan-09 01:28N 53°52' E 008°43'0 0.0
2018-Jan-09 01:00N 53°52' E 008°43'0 0.0
2018-Jan-09 00:30N 53°52' E 008°43'0 0.0
2018-Jan-09 00:00N 53°52' E 008°43'0 0.0
2018-Jan-08 23:28N 53°52' E 008°43'0 0.0
2018-Jan-08 23:01N 53°52' E 008°43'0 0.0
2018-Jan-08 22:28N 53°52' E 008°43'0 0.0
2018-Jan-08 22:00N 53°52' E 008°43'0 0.0
2018-Jan-08 21:30N 53°52' E 008°43'0 0.0
2018-Jan-08 20:59N 53°52' E 008°43'0 0.0
2018-Jan-08 20:29N 53°52' E 008°43'0 0.0
2018-Jan-08 19:58N 53°52' E 008°43'0 0.0
2018-Jan-08 19:30N 53°52' E 008°43'0 0.0
2018-Jan-08 18:59N 53°52' E 008°43'0 0.0
2018-Jan-08 18:30N 53°52' E 008°43'0 0.0
2018-Jan-08 18:00N 53°52' E 008°43'0 0.0
2018-Jan-08 17:26N 53°52' E 008°43'0 0.0
2018-Jan-08 17:00N 53°52' E 008°43'0 0.0
2018-Jan-08 16:30N 53°52' E 008°43'0 0.0
2018-Jan-08 15:58N 53°52' E 008°43'0 0.0
2018-Jan-08 15:23N 53°52' E 008°43'0 0.0
2018-Jan-08 15:01N 53°52' E 008°43'0 0.0
2018-Jan-08 14:23N 53°52' E 008°43'0 0.0
2018-Jan-08 13:58N 53°52' E 008°43'0 0.0
2018-Jan-08 13:30N 53°52' E 008°43'0 0.9
2018-Jan-08 13:00N 53°51' E 008°43'0 0.1
2018-Jan-08 10:21N 53°52' E 008°43'0 0.3
2018-Jan-08 09:59N 53°52' E 008°43'0 0.0
2018-Jan-08 09:29N 53°52' E 008°43'0 0.0
2018-Jan-08 08:49N 53°52' E 008°43'0 0.0
2018-Jan-08 08:31N 53°52' E 008°43'0 0.0
2018-Jan-08 07:54N 53°52' E 008°43'0 0.0
2018-Jan-08 07:29N 53°52' E 008°43'0 0.0
2018-Jan-08 06:59N 53°52' E 008°43'0 0.0
2018-Jan-08 06:29N 53°52' E 008°43'0 0.0
2018-Jan-08 06:00N 53°52' E 008°43'0 0.0
2018-Jan-08 05:27N 53°52' E 008°43'0 0.0
2018-Jan-08 04:59N 53°52' E 008°43'0 0.0
2018-Jan-08 04:29N 53°52' E 008°43'0 0.0
2018-Jan-08 04:00N 53°52' E 008°43'0 0.0
2018-Jan-08 03:25N 53°52' E 008°43'0 0.0
2018-Jan-08 02:56N 53°52' E 008°43'0 0.0
2018-Jan-08 02:30N 53°52' E 008°43'0 0.0
2018-Jan-08 02:00N 53°52' E 008°43'0 0.0
2018-Jan-08 01:30N 53°52' E 008°43'0 0.0
2018-Jan-08 01:00N 53°52' E 008°43'0 0.0
2018-Jan-08 00:30N 53°52' E 008°43'0 0.0
2018-Jan-08 00:00N 53°52' E 008°43'0 0.0
2018-Jan-07 23:30N 53°52' E 008°43'0 0.0
2018-Jan-07 23:00N 53°52' E 008°43'0 0.0
2018-Jan-07 22:24N 53°52' E 008°43'0 0.0
2018-Jan-07 22:00N 53°52' E 008°43'0 0.0
2018-Jan-07 21:30N 53°52' E 008°43'0 0.0
2018-Jan-07 20:53N 53°52' E 008°43'0 0.0
2018-Jan-07 20:30N 53°52' E 008°43'0 0.0
2018-Jan-07 20:00N 53°52' E 008°43'0 0.0
2018-Jan-07 19:30N 53°52' E 008°43'0 0.0
2018-Jan-07 19:00N 53°52' E 008°43'0 0.0
2018-Jan-07 18:29N 53°52' E 008°43'0 0.0
2018-Jan-07 18:00N 53°52' E 008°43'0 0.0
2018-Jan-07 17:30N 53°52' E 008°43'0 0.0
2018-Jan-07 17:00N 53°52' E 008°43'0 0.0
2018-Jan-07 16:30N 53°52' E 008°43'0 0.0
2018-Jan-07 16:00N 53°52' E 008°43'0 0.0
2018-Jan-07 15:31N 53°52' E 008°43'0 0.0
2018-Jan-07 15:00N 53°52' E 008°43'0 0.0
2018-Jan-07 14:31N 53°52' E 008°43'0 0.0
2018-Jan-07 13:59N 53°52' E 008°43'0 0.0
2018-Jan-07 13:30N 53°52' E 008°43'0 0.0
2018-Jan-07 13:00N 53°52' E 008°43'0 0.0
2018-Jan-07 12:29N 53°52' E 008°43'0 0.0
2018-Jan-07 12:01N 53°52' E 008°43'0 0.0
2018-Jan-07 11:30N 53°52' E 008°43'0 0.0
2018-Jan-07 11:00N 53°52' E 008°43'0 0.0
2018-Jan-07 10:29N 53°52' E 008°43'0 0.0
2018-Jan-07 10:00N 53°52' E 008°43'0 0.0
2018-Jan-07 09:25N 53°52' E 008°43'0 0.0
2018-Jan-07 09:00N 53°52' E 008°43'0 0.0
2018-Jan-07 08:30N 53°52' E 008°43'0 0.0
2018-Jan-07 08:00N 53°52' E 008°43'0 0.0
2018-Jan-07 07:30N 53°52' E 008°43'0 0.0
2018-Jan-07 07:00N 53°52' E 008°43'0 0.0
2018-Jan-07 06:30N 53°52' E 008°43'0 0.0
2018-Jan-07 06:00N 53°52' E 008°43'0 0.0
2018-Jan-07 05:27N 53°52' E 008°43'0 0.0
2018-Jan-07 05:00N 53°52' E 008°43'0 0.0
2018-Jan-07 04:30N 53°52' E 008°43'0 0.0
2018-Jan-07 04:00N 53°52' E 008°43'0 0.0
2018-Jan-07 03:24N 53°52' E 008°43'0 0.0
2018-Jan-07 03:00N 53°52' E 008°43'0 0.0
2018-Jan-07 02:30N 53°52' E 008°43'0 0.0
2018-Jan-07 02:00N 53°52' E 008°43'0 0.0
2018-Jan-07 01:30N 53°52' E 008°43'0 0.0
2018-Jan-07 00:30N 53°52' E 008°43'0 0.0
2018-Jan-07 00:00N 53°52' E 008°43'0 0.0
2018-Jan-06 23:30N 53°52' E 008°43'0 0.0
2018-Jan-06 23:00N 53°52' E 008°43'0 0.0
2018-Jan-06 22:30N 53°52' E 008°43'0 0.0
2018-Jan-06 22:00N 53°52' E 008°43'0 0.0
2018-Jan-06 21:30N 53°52' E 008°43'0 0.0
2018-Jan-06 21:00N 53°52' E 008°43'0 0.0
2018-Jan-06 20:30N 53°52' E 008°43'0 0.0
2018-Jan-06 20:00N 53°52' E 008°43'0 0.0
2018-Jan-06 19:30N 53°52' E 008°43'0 0.0
2018-Jan-06 19:00N 53°52' E 008°43'0 0.0
2018-Jan-06 18:30N 53°52' E 008°43'0 0.0
2018-Jan-06 18:00N 53°52' E 008°43'0 0.0
2018-Jan-06 17:30N 53°52' E 008°43'0 0.0
2018-Jan-06 17:01N 53°52' E 008°43'0 0.0
2018-Jan-06 16:30N 53°52' E 008°43'0 0.0
2018-Jan-06 16:00N 53°52' E 008°43'0 0.0
2018-Jan-06 15:30N 53°52' E 008°43'0 0.0
2018-Jan-06 15:00N 53°52' E 008°43'0 0.0
2018-Jan-06 14:30N 53°52' E 008°43'0 0.0
2018-Jan-06 14:01N 53°52' E 008°43'0 0.0
2018-Jan-06 13:30N 53°52' E 008°43'0 0.0
2018-Jan-06 13:00N 53°52' E 008°43'0 0.0
2018-Jan-06 12:31N 53°52' E 008°43'0 0.0
2018-Jan-06 11:59N 53°52' E 008°43'0 0.0
2018-Jan-06 11:30N 53°52' E 008°43'0 0.0
2018-Jan-06 11:00N 53°52' E 008°43'0 0.0
2018-Jan-06 10:30N 53°52' E 008°43'0 0.0
2018-Jan-06 09:43N 53°52' E 008°43'0 0.0
2018-Jan-06 09:28N 53°52' E 008°43'0 0.0
2018-Jan-06 09:00N 53°52' E 008°43'0 0.0
2018-Jan-06 08:30N 53°52' E 008°43'0 0.0
2018-Jan-06 07:59N 53°52' E 008°43'0 0.0
2018-Jan-06 07:30N 53°52' E 008°43'0 0.0
2018-Jan-06 06:59N 53°52' E 008°43'0 0.0
2018-Jan-06 06:30N 53°52' E 008°43'0 0.0
2018-Jan-06 06:00N 53°52' E 008°43'0 0.0
2018-Jan-06 05:30N 53°52' E 008°43'0 0.0
2018-Jan-06 05:01N 53°52' E 008°43'0 0.0
2018-Jan-06 04:30N 53°52' E 008°43'0 0.0
2018-Jan-06 03:54N 53°52' E 008°43'0 0.0
2018-Jan-06 03:30N 53°52' E 008°43'0 0.0
2018-Jan-06 03:00N 53°52' E 008°43'0 0.0
2018-Jan-06 02:30N 53°52' E 008°43'0 0.0
2018-Jan-06 02:00N 53°52' E 008°43'0 0.0
2018-Jan-06 01:30N 53°52' E 008°43'0 0.0
2018-Jan-06 01:00N 53°52' E 008°43'0 0.0
2018-Jan-06 00:30N 53°52' E 008°43'0 0.0
2018-Jan-06 00:00N 53°52' E 008°43'0 0.0
2018-Jan-05 23:30N 53°52' E 008°43'0 0.0
2018-Jan-05 23:00N 53°52' E 008°43'0 0.0
2018-Jan-05 22:30N 53°52' E 008°43'0 0.0
2018-Jan-05 22:00N 53°52' E 008°43'0 0.0
2018-Jan-05 21:30N 53°52' E 008°43'0 0.0
2018-Jan-05 21:00N 53°52' E 008°43'0 0.0
2018-Jan-05 20:27N 53°52' E 008°43'0 0.0
2018-Jan-05 20:00N 53°52' E 008°43'0 0.0
2018-Jan-05 19:28N 53°52' E 008°43'0 0.0
2018-Jan-05 19:00N 53°52' E 008°43'0 0.0
2018-Jan-05 18:26N 53°52' E 008°43'0 0.0
2018-Jan-05 18:00N 53°52' E 008°43'0 0.0
2018-Jan-05 17:30N 53°52' E 008°43'0 0.0
2018-Jan-05 17:00N 53°52' E 008°43'0 0.0
2018-Jan-05 16:30N 53°52' E 008°43'0 0.0
2018-Jan-05 16:00N 53°52' E 008°43'0 0.0
2018-Jan-05 15:30N 53°52' E 008°43'0 0.0
2018-Jan-05 15:00N 53°52' E 008°43'0 0.0
2018-Jan-05 14:30N 53°52' E 008°43'0 0.0
2018-Jan-05 14:00N 53°52' E 008°43'0 0.0
2018-Jan-05 13:30N 53°52' E 008°43'0 0.0
2018-Jan-05 13:00N 53°52' E 008°43'0 0.0
2018-Jan-05 12:30N 53°52' E 008°43'0 0.0
2018-Jan-05 11:56N 53°52' E 008°43'0 0.0
2018-Jan-05 11:30N 53°52' E 008°43'0 0.0
2018-Jan-05 11:00N 53°52' E 008°43'0 0.0
2018-Jan-05 10:30N 53°52' E 008°43'0 0.0
2018-Jan-05 10:00N 53°52' E 008°43'0 0.0
2018-Jan-05 09:31N 53°52' E 008°43'0 0.0
2018-Jan-05 09:00N 53°52' E 008°43'0 0.0
2018-Jan-05 08:30N 53°52' E 008°43'0 0.1
2018-Jan-05 06:56N 53°52' E 008°43'0 0.0
2018-Jan-05 06:30N 53°52' E 008°43'0 0.0
2018-Jan-05 05:55N 53°52' E 008°43'0 0.0
2018-Jan-05 05:30N 53°52' E 008°43'0 0.0
2018-Jan-05 05:00N 53°52' E 008°43'0 0.0
2018-Jan-05 04:29N 53°52' E 008°43'0 0.0
2018-Jan-05 04:00N 53°52' E 008°43'0 0.0
2018-Jan-05 03:26N 53°52' E 008°43'0 0.0
2018-Jan-05 02:59N 53°52' E 008°43'0 0.0
2018-Jan-05 02:30N 53°52' E 008°43'0 0.0
2018-Jan-05 02:00N 53°52' E 008°43'0 0.0
2018-Jan-05 01:29N 53°52' E 008°43'0 0.0
2018-Jan-05 01:00N 53°52' E 008°43'0 0.0
2018-Jan-05 00:30N 53°52' E 008°43'0 0.0
2018-Jan-05 00:00N 53°52' E 008°43'0 0.0
2018-Jan-04 23:30N 53°52' E 008°43'0 0.0
2018-Jan-04 23:00N 53°52' E 008°43'0 0.0
2018-Jan-04 22:30N 53°52' E 008°43'0 0.0
2018-Jan-04 22:00N 53°52' E 008°43'0 0.0
2018-Jan-04 21:30N 53°52' E 008°43'0 0.0
2018-Jan-04 21:00N 53°52' E 008°43'0 0.0
2018-Jan-04 20:30N 53°52' E 008°43'0 0.0
2018-Jan-04 20:00N 53°52' E 008°43'0 0.0
2018-Jan-04 19:30N 53°52' E 008°43'0 0.0
2018-Jan-04 19:00N 53°52' E 008°43'0 0.0
2018-Jan-04 18:30N 53°52' E 008°43'0 0.0
2018-Jan-04 18:00N 53°52' E 008°43'0 0.0
2018-Jan-04 17:30N 53°52' E 008°43'0 0.0
2018-Jan-04 17:00N 53°52' E 008°43'0 0.0
2018-Jan-04 16:30N 53°52' E 008°43'0 0.0
2018-Jan-04 16:00N 53°52' E 008°43'0 0.0
2018-Jan-04 15:31N 53°52' E 008°43'0 0.0
2018-Jan-04 15:00N 53°52' E 008°43'0 0.0
2018-Jan-04 14:30N 53°52' E 008°43'0 0.0
2018-Jan-04 13:59N 53°52' E 008°43'0 0.0
2018-Jan-04 13:31N 53°52' E 008°43'0 0.0
2018-Jan-04 12:59N 53°52' E 008°43'0 0.0
2018-Jan-04 12:29N 53°52' E 008°43'0 0.0
2018-Jan-04 12:00N 53°52' E 008°43'0 0.0
2018-Jan-04 11:27N 53°52' E 008°43'0 0.0
2018-Jan-04 11:00N 53°52' E 008°43'0 0.0
2018-Jan-04 10:31N 53°52' E 008°43'0 0.0
2018-Jan-04 10:00N 53°52' E 008°43'0 0.0
2018-Jan-04 09:30N 53°52' E 008°43'0 0.0
2018-Jan-04 09:00N 53°52' E 008°43'0 0.0
2018-Jan-04 08:30N 53°52' E 008°43'0 0.0
2018-Jan-04 08:00N 53°52' E 008°43'0 0.0
2018-Jan-04 07:30N 53°52' E 008°43'0 0.0
2018-Jan-04 07:00N 53°52' E 008°43'0 0.0
2018-Jan-04 06:30N 53°52' E 008°43'0 0.0
2018-Jan-04 06:00N 53°52' E 008°43'0 0.0
2018-Jan-04 05:30N 53°52' E 008°43'0 0.0
2018-Jan-04 05:00N 53°52' E 008°43'0 0.0
2018-Jan-04 04:30N 53°52' E 008°43'0 0.0
2018-Jan-04 04:00N 53°52' E 008°43'0 0.0
2018-Jan-04 03:31N 53°52' E 008°43'0 0.0
2018-Jan-04 03:01N 53°52' E 008°43'0 0.0
2018-Jan-04 02:30N 53°52' E 008°43'0 0.0
2018-Jan-04 02:00N 53°52' E 008°43'0 0.0
2018-Jan-04 01:30N 53°52' E 008°43'0 0.0
2018-Jan-04 01:00N 53°52' E 008°43'0 0.0
2018-Jan-04 00:30N 53°52' E 008°43'0 0.0
2018-Jan-03 21:06N 53°52' E 008°43'0 0.0
2018-Jan-03 20:51N 53°52' E 008°43'0 0.0
2018-Jan-03 20:30N 53°52' E 008°43'0 0.0
2018-Jan-03 20:00N 53°52' E 008°43'0 0.0
2018-Jan-03 19:31N 53°52' E 008°43'0 0.0
2018-Jan-03 19:00N 53°52' E 008°43'0 0.0
2018-Jan-03 18:30N 53°52' E 008°43'0 0.0
2018-Jan-03 18:00N 53°52' E 008°43'0 0.0
2018-Jan-03 17:30N 53°52' E 008°43'0 0.0
2018-Jan-03 17:00N 53°52' E 008°43'0 0.0
2018-Jan-03 16:31N 53°52' E 008°43'0 0.0
2018-Jan-03 15:55N 53°52' E 008°43'0 0.0
2018-Jan-03 15:30N 53°52' E 008°43'0 0.0
2018-Jan-03 14:58N 53°52' E 008°43'0 0.0
2018-Jan-03 14:26N 53°52' E 008°43'0 0.0
2018-Jan-03 13:59N 53°52' E 008°43'0 0.0
2018-Jan-03 13:30N 53°52' E 008°43'0 0.0
2018-Jan-03 13:00N 53°52' E 008°43'0 0.0
2018-Jan-03 12:31N 53°52' E 008°43'0 0.0
2018-Jan-03 12:00N 53°52' E 008°43'0 0.0
2018-Jan-03 11:30N 53°52' E 008°43'0 0.0
2018-Jan-03 10:58N 53°52' E 008°43'0 0.0
2018-Jan-03 10:30N 53°52' E 008°43'0 0.0
2018-Jan-03 10:00N 53°52' E 008°43'0 0.0
2018-Jan-03 09:30N 53°52' E 008°43'0 0.0
2018-Jan-03 09:00N 53°52' E 008°43'0 0.0
2018-Jan-03 08:30N 53°52' E 008°43'0 0.0
2018-Jan-03 08:01N 53°52' E 008°43'0 0.0
2018-Jan-03 07:31N 53°52' E 008°43'0 0.0
2018-Jan-03 07:01N 53°52' E 008°43'0 0.0
2018-Jan-03 06:30N 53°52' E 008°43'0 0.0
2018-Jan-03 06:01N 53°52' E 008°43'0 0.0
2018-Jan-03 05:30N 53°52' E 008°43'0 0.0
2018-Jan-03 05:00N 53°52' E 008°43'0 0.0
2018-Jan-03 04:30N 53°52' E 008°43'0 0.0
2018-Jan-03 04:01N 53°52' E 008°43'0 0.0
2018-Jan-03 03:30N 53°52' E 008°43'0 0.0
2018-Jan-03 03:00N 53°52' E 008°43'0 0.0
2018-Jan-03 02:30N 53°52' E 008°43'0 0.0
2018-Jan-03 02:00N 53°52' E 008°43'0 0.0
2018-Jan-03 01:30N 53°52' E 008°43'0 0.0
2018-Jan-03 01:00N 53°52' E 008°43'0 0.0
2018-Jan-03 00:25N 53°52' E 008°43'0 0.0
2018-Jan-03 00:00N 53°52' E 008°43'0 0.0
2018-Jan-02 23:30N 53°52' E 008°43'0 0.0
2018-Jan-02 23:00N 53°52' E 008°43'0 0.0
2018-Jan-02 22:30N 53°52' E 008°43'0 0.0
2018-Jan-02 21:59N 53°52' E 008°43'0 0.0
2018-Jan-02 21:28N 53°52' E 008°43'0 0.0
2018-Jan-02 21:00N 53°52' E 008°43'0 0.0
2018-Jan-02 20:30N 53°52' E 008°43'0 0.0
2018-Jan-02 20:00N 53°52' E 008°43'0 0.0
2018-Jan-02 19:30N 53°52' E 008°43'0 0.0
2018-Jan-02 18:59N 53°52' E 008°43'0 0.0
2018-Jan-02 18:30N 53°52' E 008°43'0 0.0
2018-Jan-02 18:00N 53°52' E 008°43'0 0.0
2018-Jan-02 17:30N 53°52' E 008°43'0 0.0
2018-Jan-02 17:00N 53°52' E 008°43'0 0.0
2018-Jan-02 16:28N 53°52' E 008°43'0 0.0
2018-Jan-02 16:01N 53°52' E 008°43'0 0.0
2018-Jan-02 15:30N 53°52' E 008°43'0 0.0
2018-Jan-02 15:00N 53°52' E 008°43'0 0.0
2018-Jan-02 14:29N 53°52' E 008°43'0 0.0
2018-Jan-02 14:00N 53°52' E 008°43'0 0.0
2018-Jan-02 13:25N 53°52' E 008°43'0 0.0
2018-Jan-02 12:59N 53°52' E 008°43'0 0.0
2018-Jan-02 12:30N 53°52' E 008°43'0 0.0
2018-Jan-02 12:01N 53°52' E 008°43'0 0.0
2018-Jan-02 11:31N 53°52' E 008°43'0 0.0
2018-Jan-02 11:00N 53°52' E 008°43'0 0.0
2018-Jan-02 10:30N 53°52' E 008°43'0 0.0
2018-Jan-02 09:56N 53°52' E 008°43'0 0.0
2018-Jan-02 09:29N 53°52' E 008°43'0 0.0
2018-Jan-02 08:29N 53°52' E 008°43'0 0.0
2018-Jan-02 07:59N 53°52' E 008°43'0 0.0
2018-Jan-02 07:31N 53°52' E 008°43'0 0.0
2018-Jan-02 07:00N 53°52' E 008°43'0 0.0
2018-Jan-02 06:30N 53°52' E 008°43'0 0.0
2018-Jan-02 06:00N 53°52' E 008°43'0 0.0
2018-Jan-02 05:27N 53°52' E 008°43'0 0.0
2018-Jan-02 04:30N 53°52' E 008°43'0 0.0
2018-Jan-02 04:00N 53°52' E 008°43'0 0.0
2018-Jan-02 03:30N 53°52' E 008°43'0 0.0
2018-Jan-02 03:00N 53°52' E 008°43'0 0.0
2018-Jan-02 02:30N 53°52' E 008°43'0 0.0
2018-Jan-02 02:00N 53°52' E 008°43'0 0.0
2018-Jan-02 01:30N 53°52' E 008°43'0 0.0
2018-Jan-02 00:59N 53°52' E 008°43'0 0.0
2018-Jan-02 00:30N 53°52' E 008°43'0 0.0
2018-Jan-02 00:00N 53°52' E 008°43'0 0.0
2018-Jan-01 23:30N 53°52' E 008°43'0 0.0
2018-Jan-01 23:00N 53°52' E 008°43'0 0.0
2018-Jan-01 22:30N 53°52' E 008°43'0 0.0
2018-Jan-01 22:00N 53°52' E 008°43'0 0.0
2018-Jan-01 21:30N 53°52' E 008°43'0 0.0
2018-Jan-01 21:00N 53°52' E 008°43'0 0.0
2018-Jan-01 20:30N 53°52' E 008°43'0 0.0
2018-Jan-01 20:00N 53°52' E 008°43'0 0.0
2018-Jan-01 19:30N 53°52' E 008°43'0 0.0
2018-Jan-01 19:00N 53°52' E 008°43'0 0.0
2018-Jan-01 18:30N 53°52' E 008°43'0 0.0
2018-Jan-01 18:00N 53°52' E 008°43'0 0.0
2018-Jan-01 17:30N 53°52' E 008°43'0 0.0
2018-Jan-01 15:00N 53°52' E 008°43'0 0.0
2018-Jan-01 14:30N 53°52' E 008°43'0 0.0
2018-Jan-01 14:01N 53°52' E 008°43'0 0.0
2018-Jan-01 13:30N 53°52' E 008°43'0 0.0
2018-Jan-01 13:00N 53°52' E 008°43'0 0.0
2018-Jan-01 11:59N 53°52' E 008°43'0 0.0
2018-Jan-01 11:30N 53°52' E 008°43'0 0.0
2018-Jan-01 11:00N 53°52' E 008°43'0 0.0
2018-Jan-01 10:30N 53°52' E 008°43'0 0.0
2018-Jan-01 10:00N 53°52' E 008°43'0 0.0
2018-Jan-01 09:30N 53°52' E 008°43'0 0.0
2018-Jan-01 08:30N 53°52' E 008°43'0 0.0
2018-Jan-01 08:00N 53°52' E 008°43'0 0.0
2018-Jan-01 07:30N 53°52' E 008°43'0 0.0
2018-Jan-01 07:00N 53°52' E 008°43'0 0.0
2018-Jan-01 06:00N 53°52' E 008°43'0 0.0
2018-Jan-01 05:30N 53°52' E 008°43'0 0.0
2018-Jan-01 05:00N 53°52' E 008°43'0 0.0
2018-Jan-01 04:01N 53°52' E 008°43'0 0.0
2018-Jan-01 03:30N 53°52' E 008°43'0 0.0
2018-Jan-01 03:00N 53°52' E 008°43'0 0.0
2018-Jan-01 02:30N 53°52' E 008°43'0 0.0
2018-Jan-01 02:00N 53°52' E 008°43'0 0.0
2018-Jan-01 01:31N 53°52' E 008°43'0 0.0
2018-Jan-01 00:30N 53°52' E 008°43'0 0.0
2017-Dec-31 21:01N 53°52' E 008°43'0 0.0
2017-Dec-31 20:30N 53°52' E 008°43'0 0.0
2017-Dec-31 20:00N 53°52' E 008°43'0 0.0
2017-Dec-31 19:30N 53°52' E 008°43'0 0.0
2017-Dec-31 19:00N 53°52' E 008°43'0 0.0
2017-Dec-31 18:30N 53°52' E 008°43'0 0.0
2017-Dec-31 18:00N 53°52' E 008°43'0 0.0
2017-Dec-31 17:30N 53°52' E 008°43'0 0.0
2017-Dec-31 17:00N 53°52' E 008°43'0 0.0
2017-Dec-31 16:30N 53°52' E 008°43'0 0.0
2017-Dec-31 16:00N 53°52' E 008°43'0 0.0
2017-Dec-31 15:30N 53°52' E 008°43'  
Track history (hours):
 
Tides and Currents Weather Stations Pressure Air Temp Water Temp Dewpoint Dewpoint Depression Visibility Wind Speed Wind Dir Waves Ship Positions

Susanne.pairtrawler

Last reported at 2018-Jan-10 15:24 UTC. Time now 2018-Jan-22 08:30 UTC.
Position N 57°07' E 008°36'.
Warning: this ship's position is 11 days out of date.

Length 40 m; draft 5 m.

Type: Fishing. MMSI: 211227510.

Date/timePositionNaut miles runAvg speedWind from/ knotsBaromVisibWave heightAir tempDewpointWater temp
2018-Jan-10 15:24N 57°07' E 008°36'0 0.0
2018-Jan-10 15:01N 57°07' E 008°36'0 0.0
2018-Jan-10 14:30N 57°07' E 008°36'0 0.0
2018-Jan-10 14:00N 57°07' E 008°36'0 0.0
2018-Jan-10 13:30N 57°07' E 008°36'0 0.0
2018-Jan-10 13:00N 57°07' E 008°36'0 0.0
2018-Jan-10 12:28N 57°07' E 008°36'79 6.6
2018-Jan-10 00:34N 55°52' E 007°52'111.5
2018-Jan-10 00:29N 55°51' E 007°51'511.4
2018-Jan-10 00:00N 55°46' E 007°51'611.5
2018-Jan-09 23:30N 55°40' E 007°50'611.6
2018-Jan-09 23:00N 55°34' E 007°49'612.7
2018-Jan-09 22:31N 55°31' E 007°58'510.4
2018-Jan-09 22:01N 55°26' E 008°04'611.7
2018-Jan-09 21:30N 55°21' E 008°05'7912.0
2018-Jan-09 14:55N 54°02' E 008°16'4 9.6
2018-Jan-09 14:29N 53°60' E 008°22'5 9.7
2018-Jan-09 14:00N 53°59' E 008°30'5 9.9
2018-Jan-09 13:30N 53°57' E 008°38'611.6
2018-Jan-09 13:00N 53°52' E 008°43'0 0.8
2018-Jan-09 12:30N 53°52' E 008°43'0 0.4
2018-Jan-09 12:00N 53°52' E 008°43'0 0.0
2018-Jan-09 11:26N 53°52' E 008°43'0 0.0
2018-Jan-09 11:00N 53°52' E 008°43'0 0.0
2018-Jan-09 10:26N 53°52' E 008°43'0 0.0
2018-Jan-09 09:58N 53°52' E 008°43'0 0.0
2018-Jan-09 09:27N 53°52' E 008°43'0 0.0
2018-Jan-09 09:00N 53°52' E 008°43'0 0.0
2018-Jan-09 08:28N 53°52' E 008°43'0 0.0
2018-Jan-09 07:53N 53°52' E 008°43'0 0.0
2018-Jan-09 07:28N 53°52' E 008°43'0 0.0
2018-Jan-09 06:53N 53°52' E 008°43'0 0.0
2018-Jan-09 06:29N 53°52' E 008°43'0 0.1
2018-Jan-09 06:00N 53°52' E 008°43'0 0.0
2018-Jan-09 05:30N 53°52' E 008°43'0 0.0
2018-Jan-09 04:59N 53°52' E 008°43'0 0.0
2018-Jan-09 04:30N 53°52' E 008°43'0 0.0
2018-Jan-09 03:58N 53°52' E 008°43'0 0.0
2018-Jan-09 03:30N 53°52' E 008°43'0 0.0
2018-Jan-09 03:00N 53°52' E 008°43'0 0.0
2018-Jan-09 02:31N 53°52' E 008°43'0 0.0
2018-Jan-09 02:00N 53°52' E 008°43'0 0.0
2018-Jan-09 01:28N 53°52' E 008°43'0 0.0
2018-Jan-09 01:00N 53°52' E 008°43'0 0.0
2018-Jan-09 00:30N 53°52' E 008°43'0 0.0
2018-Jan-09 00:00N 53°52' E 008°43'0 0.0
2018-Jan-08 23:28N 53°52' E 008°43'0 0.0
2018-Jan-08 23:01N 53°52' E 008°43'0 0.0
2018-Jan-08 22:28N 53°52' E 008°43'0 0.0
2018-Jan-08 22:00N 53°52' E 008°43'0 0.0
2018-Jan-08 21:30N 53°52' E 008°43'0 0.0
2018-Jan-08 20:59N 53°52' E 008°43'0 0.0
2018-Jan-08 20:29N 53°52' E 008°43'0 0.0
2018-Jan-08 19:58N 53°52' E 008°43'0 0.0
2018-Jan-08 19:30N 53°52' E 008°43'0 0.0
2018-Jan-08 18:59N 53°52' E 008°43'0 0.0
2018-Jan-08 18:30N 53°52' E 008°43'0 0.0
2018-Jan-08 18:00N 53°52' E 008°43'0 0.0
2018-Jan-08 17:26N 53°52' E 008°43'0 0.0
2018-Jan-08 17:00N 53°52' E 008°43'0 0.0
2018-Jan-08 16:30N 53°52' E 008°43'0 0.0
2018-Jan-08 15:58N 53°52' E 008°43'0 0.0
2018-Jan-08 15:23N 53°52' E 008°43'0 0.0
2018-Jan-08 15:01N 53°52' E 008°43'0 0.0
2018-Jan-08 14:23N 53°52' E 008°43'0 0.0
2018-Jan-08 13:58N 53°52' E 008°43'0 0.0
2018-Jan-08 13:30N 53°52' E 008°43'0 0.9
2018-Jan-08 13:00N 53°51' E 008°43'0 0.1
2018-Jan-08 10:21N 53°52' E 008°43'0 0.3
2018-Jan-08 09:59N 53°52' E 008°43'0 0.0
2018-Jan-08 09:29N 53°52' E 008°43'0 0.0
2018-Jan-08 08:49N 53°52' E 008°43'0 0.0
2018-Jan-08 08:31N 53°52' E 008°43'0 0.0
2018-Jan-08 07:54N 53°52' E 008°43'0 0.0
2018-Jan-08 07:29N 53°52' E 008°43'0 0.0
2018-Jan-08 06:59N 53°52' E 008°43'0 0.0
2018-Jan-08 06:29N 53°52' E 008°43'0 0.0
2018-Jan-08 06:00N 53°52' E 008°43'0 0.0
2018-Jan-08 05:27N 53°52' E 008°43'0 0.0
2018-Jan-08 04:59N 53°52' E 008°43'0 0.0
2018-Jan-08 04:29N 53°52' E 008°43'0 0.0
2018-Jan-08 04:00N 53°52' E 008°43'0 0.0
2018-Jan-08 03:25N 53°52' E 008°43'0 0.0
2018-Jan-08 02:56N 53°52' E 008°43'0 0.0
2018-Jan-08 02:30N 53°52' E 008°43'0 0.0
2018-Jan-08 02:00N 53°52' E 008°43'0 0.0
2018-Jan-08 01:30N 53°52' E 008°43'0 0.0
2018-Jan-08 01:00N 53°52' E 008°43'0 0.0
2018-Jan-08 00:30N 53°52' E 008°43'0 0.0
2018-Jan-08 00:00N 53°52' E 008°43'0 0.0
2018-Jan-07 23:30N 53°52' E 008°43'0 0.0
2018-Jan-07 23:00N 53°52' E 008°43'0 0.0
2018-Jan-07 22:24N 53°52' E 008°43'0 0.0
2018-Jan-07 22:00N 53°52' E 008°43'0 0.0
2018-Jan-07 21:30N 53°52' E 008°43'0 0.0
2018-Jan-07 20:53N 53°52' E 008°43'0 0.0
2018-Jan-07 20:30N 53°52' E 008°43'0 0.0
2018-Jan-07 20:00N 53°52' E 008°43'0 0.0
2018-Jan-07 19:30N 53°52' E 008°43'0 0.0
2018-Jan-07 19:00N 53°52' E 008°43'0 0.0
2018-Jan-07 18:29N 53°52' E 008°43'0 0.0
2018-Jan-07 18:00N 53°52' E 008°43'0 0.0
2018-Jan-07 17:30N 53°52' E 008°43'0 0.0
2018-Jan-07 17:00N 53°52' E 008°43'0 0.0
2018-Jan-07 16:30N 53°52' E 008°43'0 0.0
2018-Jan-07 16:00N 53°52' E 008°43'0 0.0
2018-Jan-07 15:31N 53°52' E 008°43'0 0.0
2018-Jan-07 15:00N 53°52' E 008°43'0 0.0
2018-Jan-07 14:31N 53°52' E 008°43'0 0.0
2018-Jan-07 13:59N 53°52' E 008°43'0 0.0
2018-Jan-07 13:30N 53°52' E 008°43'0 0.0
2018-Jan-07 13:00N 53°52' E 008°43'0 0.0
2018-Jan-07 12:29N 53°52' E 008°43'0 0.0
2018-Jan-07 12:01N 53°52' E 008°43'0 0.0
2018-Jan-07 11:30N 53°52' E 008°43'0 0.0
2018-Jan-07 11:00N 53°52' E 008°43'0 0.0
2018-Jan-07 10:29N 53°52' E 008°43'0 0.0
2018-Jan-07 10:00N 53°52' E 008°43'0 0.0
2018-Jan-07 09:25N 53°52' E 008°43'0 0.0
2018-Jan-07 09:00N 53°52' E 008°43'0 0.0
2018-Jan-07 08:30N 53°52' E 008°43'0 0.0
2018-Jan-07 08:00N 53°52' E 008°43'0 0.0
2018-Jan-07 07:30N 53°52' E 008°43'0 0.0
2018-Jan-07 07:00N 53°52' E 008°43'0 0.0
2018-Jan-07 06:30N 53°52' E 008°43'0 0.0
2018-Jan-07 06:00N 53°52' E 008°43'0 0.0
2018-Jan-07 05:27N 53°52' E 008°43'0 0.0
2018-Jan-07 05:00N 53°52' E 008°43'0 0.0
2018-Jan-07 04:30N 53°52' E 008°43'0 0.0
2018-Jan-07 04:00N 53°52' E 008°43'0 0.0
2018-Jan-07 03:24N 53°52' E 008°43'0 0.0
2018-Jan-07 03:00N 53°52' E 008°43'0 0.0
2018-Jan-07 02:30N 53°52' E 008°43'0 0.0
2018-Jan-07 02:00N 53°52' E 008°43'0 0.0
2018-Jan-07 01:30N 53°52' E 008°43'0 0.0
2018-Jan-07 00:30N 53°52' E 008°43'0 0.0
2018-Jan-07 00:00N 53°52' E 008°43'0 0.0
2018-Jan-06 23:30N 53°52' E 008°43'0 0.0
2018-Jan-06 23:00N 53°52' E 008°43'0 0.0
2018-Jan-06 22:30N 53°52' E 008°43'0 0.0
2018-Jan-06 22:00N 53°52' E 008°43'0 0.0
2018-Jan-06 21:30N 53°52' E 008°43'0 0.0
2018-Jan-06 21:00N 53°52' E 008°43'0 0.0
2018-Jan-06 20:30N 53°52' E 008°43'0 0.0
2018-Jan-06 20:00N 53°52' E 008°43'0 0.0
2018-Jan-06 19:30N 53°52' E 008°43'0 0.0
2018-Jan-06 19:00N 53°52' E 008°43'0 0.0
2018-Jan-06 18:30N 53°52' E 008°43'0 0.0
2018-Jan-06 18:00N 53°52' E 008°43'0 0.0
2018-Jan-06 17:30N 53°52' E 008°43'0 0.0
2018-Jan-06 17:01N 53°52' E 008°43'0 0.0
2018-Jan-06 16:30N 53°52' E 008°43'0 0.0
2018-Jan-06 16:00N 53°52' E 008°43'0 0.0
2018-Jan-06 15:30N 53°52' E 008°43'0 0.0
2018-Jan-06 15:00N 53°52' E 008°43'0 0.0
2018-Jan-06 14:30N 53°52' E 008°43'0 0.0
2018-Jan-06 14:01N 53°52' E 008°43'0 0.0
2018-Jan-06 13:30N 53°52' E 008°43'0 0.0
2018-Jan-06 13:00N 53°52' E 008°43'0 0.0
2018-Jan-06 12:31N 53°52' E 008°43'0 0.0
2018-Jan-06 11:59N 53°52' E 008°43'0 0.0
2018-Jan-06 11:30N 53°52' E 008°43'0 0.0
2018-Jan-06 11:00N 53°52' E 008°43'0 0.0
2018-Jan-06 10:30N 53°52' E 008°43'0 0.0
2018-Jan-06 09:43N 53°52' E 008°43'0 0.0
2018-Jan-06 09:28N 53°52' E 008°43'0 0.0
2018-Jan-06 09:00N 53°52' E 008°43'0 0.0
2018-Jan-06 08:30N 53°52' E 008°43'0 0.0
2018-Jan-06 07:59N 53°52' E 008°43'0 0.0
2018-Jan-06 07:30N 53°52' E 008°43'0 0.0
2018-Jan-06 06:59N 53°52' E 008°43'0 0.0
2018-Jan-06 06:30N 53°52' E 008°43'0 0.0
2018-Jan-06 06:00N 53°52' E 008°43'0 0.0
2018-Jan-06 05:30N 53°52' E 008°43'0 0.0
2018-Jan-06 05:01N 53°52' E 008°43'0 0.0
2018-Jan-06 04:30N 53°52' E 008°43'0 0.0
2018-Jan-06 03:54N 53°52' E 008°43'0 0.0
2018-Jan-06 03:30N 53°52' E 008°43'0 0.0
2018-Jan-06 03:00N 53°52' E 008°43'0 0.0
2018-Jan-06 02:30N 53°52' E 008°43'0 0.0
2018-Jan-06 02:00N 53°52' E 008°43'0 0.0
2018-Jan-06 01:30N 53°52' E 008°43'0 0.0
2018-Jan-06 01:00N 53°52' E 008°43'0 0.0
2018-Jan-06 00:30N 53°52' E 008°43'0 0.0
2018-Jan-06 00:00N 53°52' E 008°43'0 0.0
2018-Jan-05 23:30N 53°52' E 008°43'0 0.0
2018-Jan-05 23:00N 53°52' E 008°43'0 0.0
2018-Jan-05 22:30N 53°52' E 008°43'0 0.0
2018-Jan-05 22:00N 53°52' E 008°43'0 0.0
2018-Jan-05 21:30N 53°52' E 008°43'0 0.0
2018-Jan-05 21:00N 53°52' E 008°43'0 0.0
2018-Jan-05 20:27N 53°52' E 008°43'0 0.0
2018-Jan-05 20:00N 53°52' E 008°43'0 0.0
2018-Jan-05 19:28N 53°52' E 008°43'0 0.0
2018-Jan-05 19:00N 53°52' E 008°43'0 0.0
2018-Jan-05 18:26N 53°52' E 008°43'0 0.0
2018-Jan-05 18:00N 53°52' E 008°43'0 0.0
2018-Jan-05 17:30N 53°52' E 008°43'0 0.0
2018-Jan-05 17:00N 53°52' E 008°43'0 0.0
2018-Jan-05 16:30N 53°52' E 008°43'0 0.0
2018-Jan-05 16:00N 53°52' E 008°43'0 0.0
2018-Jan-05 15:30N 53°52' E 008°43'0 0.0
2018-Jan-05 15:00N 53°52' E 008°43'0 0.0
2018-Jan-05 14:30N 53°52' E 008°43'0 0.0
2018-Jan-05 14:00N 53°52' E 008°43'0 0.0
2018-Jan-05 13:30N 53°52' E 008°43'0 0.0
2018-Jan-05 13:00N 53°52' E 008°43'0 0.0
2018-Jan-05 12:30N 53°52' E 008°43'0 0.0
2018-Jan-05 11:56N 53°52' E 008°43'0 0.0
2018-Jan-05 11:30N 53°52' E 008°43'0 0.0
2018-Jan-05 11:00N 53°52' E 008°43'0 0.0
2018-Jan-05 10:30N 53°52' E 008°43'0 0.0
2018-Jan-05 10:00N 53°52' E 008°43'0 0.0
2018-Jan-05 09:31N 53°52' E 008°43'0 0.0
2018-Jan-05 09:00N 53°52' E 008°43'0 0.0
2018-Jan-05 08:30N 53°52' E 008°43'0 0.1
2018-Jan-05 06:56N 53°52' E 008°43'0 0.0
2018-Jan-05 06:30N 53°52' E 008°43'0 0.0
2018-Jan-05 05:55N 53°52' E 008°43'0 0.0
2018-Jan-05 05:30N 53°52' E 008°43'0 0.0
2018-Jan-05 05:00N 53°52' E 008°43'0 0.0
2018-Jan-05 04:29N 53°52' E 008°43'0 0.0
2018-Jan-05 04:00N 53°52' E 008°43'0 0.0
2018-Jan-05 03:26N 53°52' E 008°43'0 0.0
2018-Jan-05 02:59N 53°52' E 008°43'0 0.0
2018-Jan-05 02:30N 53°52' E 008°43'0 0.0
2018-Jan-05 02:00N 53°52' E 008°43'0 0.0
2018-Jan-05 01:29N 53°52' E 008°43'0 0.0
2018-Jan-05 01:00N 53°52' E 008°43'0 0.0
2018-Jan-05 00:30N 53°52' E 008°43'0 0.0
2018-Jan-05 00:00N 53°52' E 008°43'0 0.0
2018-Jan-04 23:30N 53°52' E 008°43'0 0.0
2018-Jan-04 23:00N 53°52' E 008°43'0 0.0
2018-Jan-04 22:30N 53°52' E 008°43'0 0.0
2018-Jan-04 22:00N 53°52' E 008°43'0 0.0
2018-Jan-04 21:30N 53°52' E 008°43'0 0.0
2018-Jan-04 21:00N 53°52' E 008°43'0 0.0
2018-Jan-04 20:30N 53°52' E 008°43'0 0.0
2018-Jan-04 20:00N 53°52' E 008°43'0 0.0
2018-Jan-04 19:30N 53°52' E 008°43'0 0.0
2018-Jan-04 19:00N 53°52' E 008°43'0 0.0
2018-Jan-04 18:30N 53°52' E 008°43'0 0.0
2018-Jan-04 18:00N 53°52' E 008°43'0 0.0
2018-Jan-04 17:30N 53°52' E 008°43'0 0.0
2018-Jan-04 17:00N 53°52' E 008°43'0 0.0
2018-Jan-04 16:30N 53°52' E 008°43'0 0.0
2018-Jan-04 16:00N 53°52' E 008°43'0 0.0
2018-Jan-04 15:31N 53°52' E 008°43'0 0.0
2018-Jan-04 15:00N 53°52' E 008°43'0 0.0
2018-Jan-04 14:30N 53°52' E 008°43'0 0.0
2018-Jan-04 13:59N 53°52' E 008°43'0 0.0
2018-Jan-04 13:31N 53°52' E 008°43'0 0.0
2018-Jan-04 12:59N 53°52' E 008°43'0 0.0
2018-Jan-04 12:29N 53°52' E 008°43'0 0.0
2018-Jan-04 12:00N 53°52' E 008°43'0 0.0
2018-Jan-04 11:27N 53°52' E 008°43'0 0.0
2018-Jan-04 11:00N 53°52' E 008°43'0 0.0
2018-Jan-04 10:31N 53°52' E 008°43'0 0.0
2018-Jan-04 10:00N 53°52' E 008°43'0 0.0
2018-Jan-04 09:30N 53°52' E 008°43'0 0.0
2018-Jan-04 09:00N 53°52' E 008°43'0 0.0
2018-Jan-04 08:30N 53°52' E 008°43'0 0.0
2018-Jan-04 08:00N 53°52' E 008°43'0 0.0
2018-Jan-04 07:30N 53°52' E 008°43'0 0.0
2018-Jan-04 07:00N 53°52' E 008°43'0 0.0
2018-Jan-04 06:30N 53°52' E 008°43'0 0.0
2018-Jan-04 06:00N 53°52' E 008°43'0 0.0
2018-Jan-04 05:30N 53°52' E 008°43'0 0.0
2018-Jan-04 05:00N 53°52' E 008°43'0 0.0
2018-Jan-04 04:30N 53°52' E 008°43'0 0.0
2018-Jan-04 04:00N 53°52' E 008°43'0 0.0
2018-Jan-04 03:31N 53°52' E 008°43'0 0.0
2018-Jan-04 03:01N 53°52' E 008°43'0 0.0
2018-Jan-04 02:30N 53°52' E 008°43'0 0.0
2018-Jan-04 02:00N 53°52' E 008°43'0 0.0
2018-Jan-04 01:30N 53°52' E 008°43'0 0.0
2018-Jan-04 01:00N 53°52' E 008°43'0 0.0
2018-Jan-04 00:30N 53°52' E 008°43'0 0.0
2018-Jan-03 21:06N 53°52' E 008°43'0 0.0
2018-Jan-03 20:51N 53°52' E 008°43'0 0.0
2018-Jan-03 20:30N 53°52' E 008°43'0 0.0
2018-Jan-03 20:00N 53°52' E 008°43'0 0.0
2018-Jan-03 19:31N 53°52' E 008°43'0 0.0
2018-Jan-03 19:00N 53°52' E 008°43'0 0.0
2018-Jan-03 18:30N 53°52' E 008°43'0 0.0
2018-Jan-03 18:00N 53°52' E 008°43'0 0.0
2018-Jan-03 17:30N 53°52' E 008°43'0 0.0
2018-Jan-03 17:00N 53°52' E 008°43'0 0.0
2018-Jan-03 16:31N 53°52' E 008°43'0 0.0
2018-Jan-03 15:55N 53°52' E 008°43'0 0.0
2018-Jan-03 15:30N 53°52' E 008°43'0 0.0
2018-Jan-03 14:58N 53°52' E 008°43'0 0.0
2018-Jan-03 14:26N 53°52' E 008°43'0 0.0
2018-Jan-03 13:59N 53°52' E 008°43'0 0.0
2018-Jan-03 13:30N 53°52' E 008°43'0 0.0
2018-Jan-03 13:00N 53°52' E 008°43'0 0.0
2018-Jan-03 12:31N 53°52' E 008°43'0 0.0
2018-Jan-03 12:00N 53°52' E 008°43'0 0.0
2018-Jan-03 11:30N 53°52' E 008°43'0 0.0
2018-Jan-03 10:58N 53°52' E 008°43'0 0.0
2018-Jan-03 10:30N 53°52' E 008°43'0 0.0
2018-Jan-03 10:00N 53°52' E 008°43'0 0.0
2018-Jan-03 09:30N 53°52' E 008°43'0 0.0
2018-Jan-03 09:00N 53°52' E 008°43'0 0.0
2018-Jan-03 08:30N 53°52' E 008°43'0 0.0
2018-Jan-03 08:01N 53°52' E 008°43'0 0.0
2018-Jan-03 07:31N 53°52' E 008°43'0 0.0
2018-Jan-03 07:01N 53°52' E 008°43'0 0.0
2018-Jan-03 06:30N 53°52' E 008°43'0 0.0
2018-Jan-03 06:01N 53°52' E 008°43'0 0.0
2018-Jan-03 05:30N 53°52' E 008°43'0 0.0
2018-Jan-03 05:00N 53°52' E 008°43'0 0.0
2018-Jan-03 04:30N 53°52' E 008°43'0 0.0
2018-Jan-03 04:01N 53°52' E 008°43'0 0.0
2018-Jan-03 03:30N 53°52' E 008°43'0 0.0
2018-Jan-03 03:00N 53°52' E 008°43'0 0.0
2018-Jan-03 02:30N 53°52' E 008°43'0 0.0
2018-Jan-03 02:00N 53°52' E 008°43'0 0.0
2018-Jan-03 01:30N 53°52' E 008°43'0 0.0
2018-Jan-03 01:00N 53°52' E 008°43'0 0.0
2018-Jan-03 00:25N 53°52' E 008°43'0 0.0
2018-Jan-03 00:00N 53°52' E 008°43'0 0.0
2018-Jan-02 23:30N 53°52' E 008°43'0 0.0
2018-Jan-02 23:00N 53°52' E 008°43'0 0.0
2018-Jan-02 22:30N 53°52' E 008°43'0 0.0
2018-Jan-02 21:59N 53°52' E 008°43'0 0.0
2018-Jan-02 21:28N 53°52' E 008°43'0 0.0
2018-Jan-02 21:00N 53°52' E 008°43'0 0.0
2018-Jan-02 20:30N 53°52' E 008°43'0 0.0
2018-Jan-02 20:00N 53°52' E 008°43'0 0.0
2018-Jan-02 19:30N 53°52' E 008°43'0 0.0
2018-Jan-02 18:59N 53°52' E 008°43'0 0.0
2018-Jan-02 18:30N 53°52' E 008°43'0 0.0
2018-Jan-02 18:00N 53°52' E 008°43'0 0.0
2018-Jan-02 17:30N 53°52' E 008°43'0 0.0
2018-Jan-02 17:00N 53°52' E 008°43'0 0.0
2018-Jan-02 16:28N 53°52' E 008°43'0 0.0
2018-Jan-02 16:01N 53°52' E 008°43'0 0.0
2018-Jan-02 15:30N 53°52' E 008°43'0 0.0
2018-Jan-02 15:00N 53°52' E 008°43'0 0.0
2018-Jan-02 14:29N 53°52' E 008°43'0 0.0
2018-Jan-02 14:00N 53°52' E 008°43'0 0.0
2018-Jan-02 13:25N 53°52' E 008°43'0 0.0
2018-Jan-02 12:59N 53°52' E 008°43'0 0.0
2018-Jan-02 12:30N 53°52' E 008°43'0 0.0
2018-Jan-02 12:01N 53°52' E 008°43'0 0.0
2018-Jan-02 11:31N 53°52' E 008°43'0 0.0
2018-Jan-02 11:00N 53°52' E 008°43'0 0.0
2018-Jan-02 10:30N 53°52' E 008°43'0 0.0
2018-Jan-02 09:56N 53°52' E 008°43'0 0.0
2018-Jan-02 09:29N 53°52' E 008°43'0 0.0
2018-Jan-02 08:29N 53°52' E 008°43'0 0.0
2018-Jan-02 07:59N 53°52' E 008°43'0 0.0
2018-Jan-02 07:31N 53°52' E 008°43'0 0.0
2018-Jan-02 07:00N 53°52' E 008°43'0 0.0
2018-Jan-02 06:30N 53°52' E 008°43'0 0.0
2018-Jan-02 06:00N 53°52' E 008°43'0 0.0
2018-Jan-02 05:27N 53°52' E 008°43'0 0.0
2018-Jan-02 04:30N 53°52' E 008°43'0 0.0
2018-Jan-02 04:00N 53°52' E 008°43'0 0.0
2018-Jan-02 03:30N 53°52' E 008°43'0 0.0
2018-Jan-02 03:00N 53°52' E 008°43'0 0.0
2018-Jan-02 02:30N 53°52' E 008°43'0 0.0
2018-Jan-02 02:00N 53°52' E 008°43'0 0.0
2018-Jan-02 01:30N 53°52' E 008°43'0 0.0
2018-Jan-02 00:59N 53°52' E 008°43'0 0.0
2018-Jan-02 00:30N 53°52' E 008°43'0 0.0
2018-Jan-02 00:00N 53°52' E 008°43'0 0.0
2018-Jan-01 23:30N 53°52' E 008°43'0 0.0
2018-Jan-01 23:00N 53°52' E 008°43'0 0.0
2018-Jan-01 22:30N 53°52' E 008°43'0 0.0
2018-Jan-01 22:00N 53°52' E 008°43'0 0.0
2018-Jan-01 21:30N 53°52' E 008°43'0 0.0
2018-Jan-01 21:00N 53°52' E 008°43'0 0.0
2018-Jan-01 20:30N 53°52' E 008°43'0 0.0
2018-Jan-01 20:00N 53°52' E 008°43'0 0.0
2018-Jan-01 19:30N 53°52' E 008°43'0 0.0
2018-Jan-01 19:00N 53°52' E 008°43'0 0.0
2018-Jan-01 18:30N 53°52' E 008°43'0 0.0
2018-Jan-01 18:00N 53°52' E 008°43'0 0.0
2018-Jan-01 17:30N 53°52' E 008°43'0 0.0
2018-Jan-01 15:00N 53°52' E 008°43'0 0.0
2018-Jan-01 14:30N 53°52' E 008°43'0 0.0
2018-Jan-01 14:01N 53°52' E 008°43'0 0.0
2018-Jan-01 13:30N 53°52' E 008°43'0 0.0
2018-Jan-01 13:00N 53°52' E 008°43'0 0.0
2018-Jan-01 11:59N 53°52' E 008°43'0 0.0
2018-Jan-01 11:30N 53°52' E 008°43'0 0.0
2018-Jan-01 11:00N 53°52' E 008°43'0 0.0
2018-Jan-01 10:30N 53°52' E 008°43'0 0.0
2018-Jan-01 10:00N 53°52' E 008°43'0 0.0
2018-Jan-01 09:30N 53°52' E 008°43'0 0.0
2018-Jan-01 08:30N 53°52' E 008°43'0 0.0
2018-Jan-01 08:00N 53°52' E 008°43'0 0.0
2018-Jan-01 07:30N 53°52' E 008°43'0 0.0
2018-Jan-01 07:00N 53°52' E 008°43'0 0.0
2018-Jan-01 06:00N 53°52' E 008°43'0 0.0
2018-Jan-01 05:30N 53°52' E 008°43'0 0.0
2018-Jan-01 05:00N 53°52' E 008°43'0 0.0
2018-Jan-01 04:01N 53°52' E 008°43'0 0.0
2018-Jan-01 03:30N 53°52' E 008°43'0 0.0
2018-Jan-01 03:00N 53°52' E 008°43'0 0.0
2018-Jan-01 02:30N 53°52' E 008°43'0 0.0
2018-Jan-01 02:00N 53°52' E 008°43'0 0.0
2018-Jan-01 01:31N 53°52' E 008°43'0 0.0
2018-Jan-01 00:30N 53°52' E 008°43'0 0.0
2017-Dec-31 21:01N 53°52' E 008°43'0 0.0
2017-Dec-31 20:30N 53°52' E 008°43'0 0.0
2017-Dec-31 20:00N 53°52' E 008°43'0 0.0
2017-Dec-31 19:30N 53°52' E 008°43'0 0.0
2017-Dec-31 19:00N 53°52' E 008°43'0 0.0
2017-Dec-31 18:30N 53°52' E 008°43'0 0.0
2017-Dec-31 18:00N 53°52' E 008°43'0 0.0
2017-Dec-31 17:30N 53°52' E 008°43'0 0.0
2017-Dec-31 17:00N 53°52' E 008°43'0 0.0
2017-Dec-31 16:30N 53°52' E 008°43'0 0.0
2017-Dec-31 16:00N 53°52' E 008°43'0 0.0
2017-Dec-31 15:30N 53°52' E 008°43'  

Dump ship's entire track history